首页
METAR-TAF:

METAR-TAF

机场 :

印第安纳波利斯国际机场

印第安納波利斯, 印第安纳州, 美国

纬度: 39-43-30N, 经度: 086-16-55W, 海拔: 243米

当前天气观测

该预报发布于29分钟前的06:54 UTC
风速14节,风向西北
温度 -6°C
湿度 93%
气压 1010 hPa
能見度: 11.3公里
阴天层高于1100英尺

METAR: KIND 240654Z 31014KT 7SM OVC011 M06/M07 A2982 RMK AO2 SLP105 T10561072 $

时间: 02:23 (07:23 UTC)

预报

该预报发布于2小时和3分钟前的05:20 UTC
预报有效从24日的 06点(UTC)到 25日的 12点(UTC)
风速12节,风向西北
能見度: 10公里
阴天层高于1000英尺
从 24日的 1500点(UTC)
风速7节,风向西
能見度: 10公里
多云层高于2000英尺
从 25日的 0300点(UTC)
风速14节,风向西转西北,有时为22节阵风
能見度: 10公里
多云层高于2000英尺
从 25日的 0700点(UTC)
风速14节,风向西转西北
能見度: 10公里
多云层高于2200英尺

TAF: KIND 240520Z 2406/2512 31012KT P6SM OVC010 FM241500 27007KT P6SM BKN020 FM250300 29014G22KT P6SM BKN020 FM250700 29014KT P6SM BKN022

超过4000个机场的气象观测和天气预报(METAR&TAF报告)。

可查询的气象台以黄色和红色小点在地图上表示。

将鼠标移到小点上方,可查看气象台名称。

然后点击查看天气观测和预报。

如需切换地图:点击带黑十字的绿色按钮放大地图;点击带横线的绿色按钮缩小地图;或者点击绿色箭头查看邻近地区的地图。


METAR-TAF: